sensor_id;sensor_type;location;lat;lon;timestamp;P1;durP1;ratioP1;P2;durP2;ratioP2
47383;SDS011;33129;52.232;5.192;2022-08-21T00:00:54;9.07;;;3.97;;
47383;SDS011;33129;52.232;5.192;2022-08-21T00:03:21;7.10;;;3.80;;
47383;SDS011;33129;52.232;5.192;2022-08-21T00:05:48;7.63;;;3.97;;
47383;SDS011;33129;52.232;5.192;2022-08-21T00:08:16;9.23;;;4.13;;
47383;SDS011;33129;52.232;5.192;2022-08-21T00:10:44;8.87;;;3.87;;
47383;SDS011;33129;52.232;5.192;2022-08-21T00:13:11;8.60;;;3.60;;
47383;SDS011;33129;52.232;5.192;2022-08-21T00:15:39;7.87;;;4.10;;
47383;SDS011;33129;52.232;5.192;2022-08-21T00:18:06;7.77;;;3.83;;
47383;SDS011;33129;52.232;5.192;2022-08-21T00:20:35;8.40;;;4.47;;
47383;SDS011;33129;52.232;5.192;2022-08-21T00:23:03;6.97;;;4.20;;
47383;SDS011;33129;52.232;5.192;2022-08-21T00:25:29;8.90;;;4.60;;
47383;SDS011;33129;52.232;5.192;2022-08-21T00:27:55;8.73;;;4.30;;
47383;SDS011;33129;52.232;5.192;2022-08-21T00:30:22;8.40;;;4.10;;
47383;SDS011;33129;52.232;5.192;2022-08-21T00:32:51;10.13;;;4.10;;
47383;SDS011;33129;52.232;5.192;2022-08-21T00:35:20;9.90;;;4.30;;
47383;SDS011;33129;52.232;5.192;2022-08-21T00:37:53;7.97;;;4.10;;
47383;SDS011;33129;52.232;5.192;2022-08-21T00:40:21;7.17;;;3.80;;
47383;SDS011;33129;52.232;5.192;2022-08-21T00:42:54;8.73;;;4.07;;
47383;SDS011;33129;52.232;5.192;2022-08-21T00:45:21;9.70;;;4.00;;
47383;SDS011;33129;52.232;5.192;2022-08-21T00:47:48;10.03;;;4.40;;
47383;SDS011;33129;52.232;5.192;2022-08-21T00:50:16;11.20;;;4.53;;
47383;SDS011;33129;52.232;5.192;2022-08-21T00:52:43;6.97;;;3.57;;
47383;SDS011;33129;52.232;5.192;2022-08-21T00:55:10;12.40;;;4.77;;
47383;SDS011;33129;52.232;5.192;2022-08-21T00:57:42;11.97;;;4.70;;
47383;SDS011;33129;52.232;5.192;2022-08-21T01:00:16;6.83;;;3.87;;
47383;SDS011;33129;52.232;5.192;2022-08-21T01:02:49;7.60;;;3.67;;
47383;SDS011;33129;52.232;5.192;2022-08-21T01:05:15;9.50;;;3.93;;
47383;SDS011;33129;52.232;5.192;2022-08-21T01:07:42;10.93;;;4.17;;
47383;SDS011;33129;52.232;5.192;2022-08-21T01:10:09;9.77;;;4.30;;
47383;SDS011;33129;52.232;5.192;2022-08-21T01:12:35;8.23;;;4.50;;
47383;SDS011;33129;52.232;5.192;2022-08-21T01:15:02;10.40;;;4.40;;
47383;SDS011;33129;52.232;5.192;2022-08-21T01:17:29;9.40;;;4.23;;
47383;SDS011;33129;52.232;5.192;2022-08-21T01:19:57;8.40;;;4.43;;
47383;SDS011;33129;52.232;5.192;2022-08-21T01:22:24;9.80;;;4.37;;
47383;SDS011;33129;52.232;5.192;2022-08-21T01:24:51;8.57;;;4.27;;
47383;SDS011;33129;52.232;5.192;2022-08-21T01:27:17;10.50;;;4.40;;
47383;SDS011;33129;52.232;5.192;2022-08-21T01:29:46;8.90;;;4.30;;
47383;SDS011;33129;52.232;5.192;2022-08-21T01:32:21;8.37;;;4.07;;
47383;SDS011;33129;52.232;5.192;2022-08-21T01:34:48;7.07;;;4.43;;
47383;SDS011;33129;52.232;5.192;2022-08-21T01:37:15;7.87;;;4.03;;
47383;SDS011;33129;52.232;5.192;2022-08-21T01:39:42;9.13;;;4.60;;
47383;SDS011;33129;52.232;5.192;2022-08-21T01:42:09;6.77;;;3.87;;
47383;SDS011;33129;52.232;5.192;2022-08-21T01:44:35;11.13;;;4.10;;
47383;SDS011;33129;52.232;5.192;2022-08-21T01:47:06;9.33;;;3.70;;
47383;SDS011;33129;52.232;5.192;2022-08-21T01:49:36;7.37;;;3.70;;
47383;SDS011;33129;52.232;5.192;2022-08-21T01:52:03;8.27;;;3.77;;
47383;SDS011;33129;52.232;5.192;2022-08-21T01:54:30;8.70;;;3.97;;
47383;SDS011;33129;52.232;5.192;2022-08-21T01:56:57;8.27;;;4.60;;
47383;SDS011;33129;52.232;5.192;2022-08-21T01:59:25;8.67;;;4.40;;
47383;SDS011;33129;52.232;5.192;2022-08-21T02:01:51;10.87;;;4.40;;
47383;SDS011;33129;52.232;5.192;2022-08-21T02:04:19;12.13;;;4.57;;
47383;SDS011;33129;52.232;5.192;2022-08-21T02:06:45;8.77;;;4.20;;
47383;SDS011;33129;52.232;5.192;2022-08-21T02:09:12;9.27;;;4.17;;
47383;SDS011;33129;52.232;5.192;2022-08-21T02:11:39;8.17;;;4.07;;
47383;SDS011;33129;52.232;5.192;2022-08-21T02:14:14;8.90;;;4.27;;
47383;SDS011;33129;52.232;5.192;2022-08-21T02:16:41;9.40;;;4.47;;
47383;SDS011;33129;52.232;5.192;2022-08-21T02:19:09;9.13;;;4.67;;
47383;SDS011;33129;52.232;5.192;2022-08-21T02:21:37;9.20;;;4.43;;
47383;SDS011;33129;52.232;5.192;2022-08-21T02:24:03;8.17;;;4.03;;
47383;SDS011;33129;52.232;5.192;2022-08-21T02:26:29;9.40;;;4.70;;
47383;SDS011;33129;52.232;5.192;2022-08-21T02:28:55;9.67;;;4.77;;
47383;SDS011;33129;52.232;5.192;2022-08-21T02:31:21;10.20;;;4.80;;
47383;SDS011;33129;52.232;5.192;2022-08-21T02:33:46;11.57;;;4.27;;
47383;SDS011;33129;52.232;5.192;2022-08-21T02:36:12;8.17;;;4.43;;
47383;SDS011;33129;52.232;5.192;2022-08-21T02:38:39;8.47;;;4.73;;
47383;SDS011;33129;52.232;5.192;2022-08-21T02:41:08;8.53;;;4.27;;
47383;SDS011;33129;52.232;5.192;2022-08-21T02:43:40;8.07;;;4.50;;
47383;SDS011;33129;52.232;5.192;2022-08-21T02:46:07;10.80;;;5.10;;
47383;SDS011;33129;52.232;5.192;2022-08-21T02:48:42;10.13;;;5.57;;
47383;SDS011;33129;52.232;5.192;2022-08-21T02:51:10;8.87;;;4.37;;
47383;SDS011;33129;52.232;5.192;2022-08-21T02:53:45;10.23;;;4.80;;
47383;SDS011;33129;52.232;5.192;2022-08-21T02:56:13;8.97;;;4.33;;
47383;SDS011;33129;52.232;5.192;2022-08-21T02:58:42;8.90;;;4.87;;
47383;SDS011;33129;52.232;5.192;2022-08-21T03:01:13;13.30;;;5.30;;
47383;SDS011;33129;52.232;5.192;2022-08-21T03:03:41;11.80;;;5.03;;
47383;SDS011;33129;52.232;5.192;2022-08-21T03:06:10;10.73;;;4.73;;
47383;SDS011;33129;52.232;5.192;2022-08-21T03:08:39;15.13;;;5.40;;
47383;SDS011;33129;52.232;5.192;2022-08-21T03:11:05;8.20;;;4.60;;
47383;SDS011;33129;52.232;5.192;2022-08-21T03:13:31;11.73;;;5.43;;
47383;SDS011;33129;52.232;5.192;2022-08-21T03:15:58;9.90;;;5.30;;
47383;SDS011;33129;52.232;5.192;2022-08-21T03:18:24;8.27;;;5.07;;
47383;SDS011;33129;52.232;5.192;2022-08-21T03:20:50;11.77;;;5.40;;
47383;SDS011;33129;52.232;5.192;2022-08-21T03:23:16;10.07;;;5.97;;
47383;SDS011;33129;52.232;5.192;2022-08-21T03:25:43;10.27;;;5.20;;
47383;SDS011;33129;52.232;5.192;2022-08-21T03:28:11;9.67;;;5.60;;
47383;SDS011;33129;52.232;5.192;2022-08-21T03:30:41;9.90;;;5.65;;
47383;SDS011;33129;52.232;5.192;2022-08-21T03:33:09;9.90;;;5.77;;
47383;SDS011;33129;52.232;5.192;2022-08-21T03:35:36;10.90;;;5.03;;
47383;SDS011;33129;52.232;5.192;2022-08-21T03:38:02;11.13;;;6.03;;
47383;SDS011;33129;52.232;5.192;2022-08-21T03:40:28;11.03;;;5.50;;
47383;SDS011;33129;52.232;5.192;2022-08-21T03:42:54;10.33;;;5.87;;
47383;SDS011;33129;52.232;5.192;2022-08-21T03:45:19;10.03;;;5.13;;
47383;SDS011;33129;52.232;5.192;2022-08-21T03:47:59;10.43;;;5.83;;
47383;SDS011;33129;52.232;5.192;2022-08-21T03:50:30;10.00;;;5.27;;
47383;SDS011;33129;52.232;5.192;2022-08-21T03:52:59;10.50;;;6.20;;
47383;SDS011;33129;52.232;5.192;2022-08-21T03:55:26;10.70;;;5.30;;
47383;SDS011;33129;52.232;5.192;2022-08-21T03:57:52;13.33;;;5.73;;
47383;SDS011;33129;52.232;5.192;2022-08-21T04:00:19;11.70;;;5.60;;
47383;SDS011;33129;52.232;5.192;2022-08-21T04:02:45;9.83;;;4.90;;
47383;SDS011;33129;52.232;5.192;2022-08-21T04:05:13;12.03;;;6.20;;
47383;SDS011;33129;52.232;5.192;2022-08-21T04:07:52;12.80;;;5.53;;
47383;SDS011;33129;52.232;5.192;2022-08-21T04:10:19;10.93;;;5.60;;
47383;SDS011;33129;52.232;5.192;2022-08-21T04:12:45;9.80;;;5.60;;
47383;SDS011;33129;52.232;5.192;2022-08-21T04:15:11;12.00;;;5.10;;
47383;SDS011;33129;52.232;5.192;2022-08-21T04:17:37;8.97;;;5.50;;
47383;SDS011;33129;52.232;5.192;2022-08-21T04:20:04;12.67;;;5.87;;
47383;SDS011;33129;52.232;5.192;2022-08-21T04:22:30;12.27;;;6.43;;
47383;SDS011;33129;52.232;5.192;2022-08-21T04:24:55;10.33;;;6.13;;
47383;SDS011;33129;52.232;5.192;2022-08-21T04:27:21;11.20;;;6.30;;
47383;SDS011;33129;52.232;5.192;2022-08-21T04:29:47;13.00;;;6.63;;
47383;SDS011;33129;52.232;5.192;2022-08-21T04:32:12;11.33;;;5.97;;
47383;SDS011;33129;52.232;5.192;2022-08-21T04:34:38;11.37;;;5.60;;
47383;SDS011;33129;52.232;5.192;2022-08-21T04:37:04;12.80;;;6.57;;
47383;SDS011;33129;52.232;5.192;2022-08-21T04:39:29;10.80;;;6.03;;
47383;SDS011;33129;52.232;5.192;2022-08-21T04:41:55;10.60;;;6.00;;
47383;SDS011;33129;52.232;5.192;2022-08-21T04:44:21;12.73;;;5.93;;
47383;SDS011;33129;52.232;5.192;2022-08-21T04:46:47;10.17;;;6.47;;
47383;SDS011;33129;52.232;5.192;2022-08-21T04:49:12;11.57;;;5.83;;
47383;SDS011;33129;52.232;5.192;2022-08-21T04:51:38;9.20;;;5.70;;
47383;SDS011;33129;52.232;5.192;2022-08-21T04:56:48;10.33;;;6.30;;
47383;SDS011;33129;52.232;5.192;2022-08-21T04:59:25;10.47;;;5.97;;
47383;SDS011;33129;52.232;5.192;2022-08-21T05:01:56;11.70;;;5.80;;
47383;SDS011;33129;52.232;5.192;2022-08-21T05:04:24;11.10;;;6.17;;
47383;SDS011;33129;52.232;5.192;2022-08-21T05:06:55;10.73;;;6.20;;
47383;SDS011;33129;52.232;5.192;2022-08-21T05:09:25;11.40;;;6.05;;
47383;SDS011;33129;52.232;5.192;2022-08-21T05:11:52;15.27;;;6.30;;
47383;SDS011;33129;52.232;5.192;2022-08-21T05:14:19;10.57;;;6.20;;
47383;SDS011;33129;52.232;5.192;2022-08-21T05:16:45;11.43;;;6.13;;
47383;SDS011;33129;52.232;5.192;2022-08-21T05:19:11;12.47;;;6.27;;
47383;SDS011;33129;52.232;5.192;2022-08-21T05:21:39;15.30;;;7.03;;
47383;SDS011;33129;52.232;5.192;2022-08-21T05:26:34;14.70;;;7.47;;
47383;SDS011;33129;52.232;5.192;2022-08-21T05:29:01;14.03;;;6.63;;
47383;SDS011;33129;52.232;5.192;2022-08-21T05:31:28;15.83;;;7.07;;
47383;SDS011;33129;52.232;5.192;2022-08-21T05:33:53;13.67;;;6.70;;
47383;SDS011;33129;52.232;5.192;2022-08-21T05:36:19;11.73;;;6.60;;
47383;SDS011;33129;52.232;5.192;2022-08-21T05:38:45;12.10;;;6.70;;
47383;SDS011;33129;52.232;5.192;2022-08-21T05:41:11;9.63;;;5.93;;
47383;SDS011;33129;52.232;5.192;2022-08-21T05:43:37;12.80;;;6.20;;
47383;SDS011;33129;52.232;5.192;2022-08-21T05:46:03;10.53;;;5.63;;
47383;SDS011;33129;52.232;5.192;2022-08-21T05:48:29;12.70;;;6.10;;
47383;SDS011;33129;52.232;5.192;2022-08-21T05:50:56;12.93;;;6.30;;
47383;SDS011;33129;52.232;5.192;2022-08-21T05:53:23;10.63;;;5.80;;
47383;SDS011;33129;52.232;5.192;2022-08-21T05:55:50;11.37;;;6.30;;
47383;SDS011;33129;52.232;5.192;2022-08-21T05:58:17;11.77;;;6.17;;
47383;SDS011;33129;52.232;5.192;2022-08-21T06:00:45;8.37;;;4.73;;
47383;SDS011;33129;52.232;5.192;2022-08-21T06:03:16;10.60;;;4.87;;
47383;SDS011;33129;52.232;5.192;2022-08-21T06:05:45;16.77;;;5.67;;
47383;SDS011;33129;52.232;5.192;2022-08-21T06:08:12;10.77;;;5.13;;
47383;SDS011;33129;52.232;5.192;2022-08-21T06:10:42;10.00;;;5.13;;
47383;SDS011;33129;52.232;5.192;2022-08-21T06:13:10;10.18;;;5.22;;
47383;SDS011;33129;52.232;5.192;2022-08-21T06:15:36;9.25;;;5.22;;
47383;SDS011;33129;52.232;5.192;2022-08-21T06:18:03;8.93;;;4.75;;
47383;SDS011;33129;52.232;5.192;2022-08-21T06:20:29;10.02;;;4.97;;
47383;SDS011;33129;52.232;5.192;2022-08-21T06:22:54;11.20;;;5.22;;
47383;SDS011;33129;52.232;5.192;2022-08-21T06:25:20;11.05;;;4.95;;
47383;SDS011;33129;52.232;5.192;2022-08-21T06:27:46;12.50;;;4.80;;
47383;SDS011;33129;52.232;5.192;2022-08-21T06:30:12;15.35;;;5.20;;
47383;SDS011;33129;52.232;5.192;2022-08-21T06:32:38;11.13;;;4.55;;
47383;SDS011;33129;52.232;5.192;2022-08-21T06:35:05;9.35;;;4.68;;
47383;SDS011;33129;52.232;5.192;2022-08-21T06:37:31;14.80;;;5.45;;
47383;SDS011;33129;52.232;5.192;2022-08-21T06:39:58;15.10;;;5.57;;
47383;SDS011;33129;52.232;5.192;2022-08-21T06:42:23;12.35;;;4.65;;
47383;SDS011;33129;52.232;5.192;2022-08-21T06:44:49;8.35;;;4.45;;
47383;SDS011;33129;52.232;5.192;2022-08-21T06:47:15;12.00;;;4.55;;
47383;SDS011;33129;52.232;5.192;2022-08-21T06:49:41;12.90;;;3.88;;
47383;SDS011;33129;52.232;5.192;2022-08-21T06:52:10;14.35;;;4.72;;
47383;SDS011;33129;52.232;5.192;2022-08-21T06:54:38;14.00;;;4.35;;
47383;SDS011;33129;52.232;5.192;2022-08-21T06:57:04;13.93;;;5.32;;
47383;SDS011;33129;52.232;5.192;2022-08-21T06:59:31;13.57;;;4.63;;
47383;SDS011;33129;52.232;5.192;2022-08-21T07:01:57;13.55;;;4.35;;
47383;SDS011;33129;52.232;5.192;2022-08-21T07:04:24;9.38;;;4.03;;
47383;SDS011;33129;52.232;5.192;2022-08-21T07:06:50;12.40;;;4.32;;
47383;SDS011;33129;52.232;5.192;2022-08-21T07:09:15;11.40;;;4.00;;
47383;SDS011;33129;52.232;5.192;2022-08-21T07:11:41;11.35;;;4.05;;
47383;SDS011;33129;52.232;5.192;2022-08-21T07:14:17;8.90;;;3.88;;
47383;SDS011;33129;52.232;5.192;2022-08-21T07:16:42;10.23;;;3.88;;
47383;SDS011;33129;52.232;5.192;2022-08-21T07:19:08;11.07;;;3.90;;
47383;SDS011;33129;52.232;5.192;2022-08-21T07:21:34;13.18;;;4.60;;
47383;SDS011;33129;52.232;5.192;2022-08-21T07:24:00;11.05;;;3.80;;
47383;SDS011;33129;52.232;5.192;2022-08-21T07:26:25;10.15;;;3.78;;
47383;SDS011;33129;52.232;5.192;2022-08-21T07:28:51;9.77;;;3.90;;
47383;SDS011;33129;52.232;5.192;2022-08-21T07:31:18;8.80;;;3.60;;
47383;SDS011;33129;52.232;5.192;2022-08-21T07:33:46;10.30;;;4.05;;
47383;SDS011;33129;52.232;5.192;2022-08-21T07:36:12;14.40;;;4.20;;
47383;SDS011;33129;52.232;5.192;2022-08-21T07:38:39;12.55;;;3.80;;
47383;SDS011;33129;52.232;5.192;2022-08-21T07:41:15;12.20;;;4.50;;
47383;SDS011;33129;52.232;5.192;2022-08-21T07:43:45;10.57;;;3.20;;
47383;SDS011;33129;52.232;5.192;2022-08-21T07:46:12;13.93;;;3.97;;
47383;SDS011;33129;52.232;5.192;2022-08-21T07:48:38;12.30;;;4.22;;
47383;SDS011;33129;52.232;5.192;2022-08-21T07:51:11;10.98;;;3.72;;
47383;SDS011;33129;52.232;5.192;2022-08-21T07:53:40;12.45;;;3.83;;
47383;SDS011;33129;52.232;5.192;2022-08-21T07:56:06;14.23;;;4.40;;
47383;SDS011;33129;52.232;5.192;2022-08-21T07:58:33;11.02;;;4.38;;
47383;SDS011;33129;52.232;5.192;2022-08-21T08:00:59;12.85;;;4.65;;
47383;SDS011;33129;52.232;5.192;2022-08-21T08:03:25;12.38;;;4.00;;
47383;SDS011;33129;52.232;5.192;2022-08-21T08:05:51;12.05;;;4.13;;
47383;SDS011;33129;52.232;5.192;2022-08-21T08:08:16;11.05;;;3.92;;
47383;SDS011;33129;52.232;5.192;2022-08-21T08:10:43;9.82;;;3.75;;
47383;SDS011;33129;52.232;5.192;2022-08-21T08:13:09;10.88;;;3.60;;
47383;SDS011;33129;52.232;5.192;2022-08-21T08:15:35;12.45;;;4.40;;
47383;SDS011;33129;52.232;5.192;2022-08-21T08:18:01;10.40;;;3.65;;
47383;SDS011;33129;52.232;5.192;2022-08-21T08:20:28;10.43;;;3.70;;
47383;SDS011;33129;52.232;5.192;2022-08-21T08:22:54;9.68;;;3.65;;
47383;SDS011;33129;52.232;5.192;2022-08-21T08:25:21;11.68;;;4.47;;
47383;SDS011;33129;52.232;5.192;2022-08-21T08:27:48;15.35;;;4.32;;
47383;SDS011;33129;52.232;5.192;2022-08-21T08:30:15;12.07;;;4.25;;
47383;SDS011;33129;52.232;5.192;2022-08-21T08:32:43;12.25;;;4.32;;
47383;SDS011;33129;52.232;5.192;2022-08-21T08:35:09;11.38;;;4.10;;
47383;SDS011;33129;52.232;5.192;2022-08-21T08:37:36;11.43;;;4.18;;
47383;SDS011;33129;52.232;5.192;2022-08-21T08:40:05;15.35;;;4.05;;
47383;SDS011;33129;52.232;5.192;2022-08-21T08:42:36;11.82;;;3.70;;
47383;SDS011;33129;52.232;5.192;2022-08-21T08:47:28;16.13;;;4.25;;
47383;SDS011;33129;52.232;5.192;2022-08-21T08:52:31;10.55;;;4.05;;
47383;SDS011;33129;52.232;5.192;2022-08-21T08:55:06;10.68;;;3.70;;
47383;SDS011;33129;52.232;5.192;2022-08-21T08:57:35;13.63;;;5.05;;
47383;SDS011;33129;52.232;5.192;2022-08-21T09:00:05;11.98;;;3.90;;
47383;SDS011;33129;52.232;5.192;2022-08-21T09:02:38;13.40;;;3.83;;
47383;SDS011;33129;52.232;5.192;2022-08-21T09:05:07;9.95;;;3.78;;
47383;SDS011;33129;52.232;5.192;2022-08-21T09:10:20;12.27;;;3.60;;
47383;SDS011;33129;52.232;5.192;2022-08-21T09:24:29;14.52;;;4.28;;
47383;SDS011;33129;52.232;5.192;2022-08-21T09:27:07;10.50;;;3.10;;
47383;SDS011;33129;52.232;5.192;2022-08-21T09:29:42;11.27;;;3.67;;
47383;SDS011;33129;52.232;5.192;2022-08-21T09:35:26;7.80;;;2.85;;
47383;SDS011;33129;52.232;5.192;2022-08-21T09:40:44;9.50;;;2.80;;
47383;SDS011;33129;52.232;5.192;2022-08-21T09:43:19;11.88;;;3.75;;
47383;SDS011;33129;52.232;5.192;2022-08-21T09:46:03;12.38;;;2.95;;
47383;SDS011;33129;52.232;5.192;2022-08-21T09:48:57;12.32;;;3.47;;
47383;SDS011;33129;52.232;5.192;2022-08-21T09:51:29;13.50;;;3.63;;
47383;SDS011;33129;52.232;5.192;2022-08-21T09:54:19;8.55;;;3.00;;
47383;SDS011;33129;52.232;5.192;2022-08-21T09:59:41;10.23;;;2.97;;
47383;SDS011;33129;52.232;5.192;2022-08-21T10:05:06;8.93;;;3.10;;
47383;SDS011;33129;52.232;5.192;2022-08-21T10:07:41;8.88;;;2.70;;
47383;SDS011;33129;52.232;5.192;2022-08-21T10:10:18;10.20;;;2.75;;
47383;SDS011;33129;52.232;5.192;2022-08-21T10:18:46;5.88;;;1.92;;
47383;SDS011;33129;52.232;5.192;2022-08-21T10:21:40;9.38;;;2.88;;
47383;SDS011;33129;52.232;5.192;2022-08-21T10:24:31;10.02;;;2.75;;
47383;SDS011;33129;52.232;5.192;2022-08-21T10:27:16;7.55;;;2.90;;
47383;SDS011;33129;52.232;5.192;2022-08-21T10:30:16;6.40;;;1.88;;
47383;SDS011;33129;52.232;5.192;2022-08-21T10:35:49;10.18;;;2.40;;
47383;SDS011;33129;52.232;5.192;2022-08-21T10:45:05;9.02;;;3.15;;
47383;SDS011;33129;52.232;5.192;2022-08-21T10:47:41;7.25;;;2.50;;
47383;SDS011;33129;52.232;5.192;2022-08-21T10:56:25;10.93;;;3.25;;
47383;SDS011;33129;52.232;5.192;2022-08-21T11:02:23;8.32;;;3.05;;
47383;SDS011;33129;52.232;5.192;2022-08-21T11:05:09;11.68;;;3.17;;
47383;SDS011;33129;52.232;5.192;2022-08-21T11:07:48;10.65;;;3.05;;
47383;SDS011;33129;52.232;5.192;2022-08-21T11:10:33;9.60;;;2.85;;
47383;SDS011;33129;52.232;5.192;2022-08-21T11:13:19;9.73;;;3.03;;
47383;SDS011;33129;52.232;5.192;2022-08-21T11:18:42;8.75;;;2.78;;
47383;SDS011;33129;52.232;5.192;2022-08-21T11:21:43;7.90;;;2.75;;
47383;SDS011;33129;52.232;5.192;2022-08-21T11:29:56;6.05;;;1.98;;
47383;SDS011;33129;52.232;5.192;2022-08-21T11:41:36;7.63;;;2.45;;
47383;SDS011;33129;52.232;5.192;2022-08-21T11:51:33;5.68;;;2.35;;
47383;SDS011;33129;52.232;5.192;2022-08-21T11:54:12;12.00;;;3.30;;
47383;SDS011;33129;52.232;5.192;2022-08-21T11:56:50;8.65;;;2.40;;
47383;SDS011;33129;52.232;5.192;2022-08-21T11:59:43;8.27;;;2.42;;
47383;SDS011;33129;52.232;5.192;2022-08-21T12:02:20;7.75;;;2.75;;
47383;SDS011;33129;52.232;5.192;2022-08-21T12:04:55;6.82;;;2.72;;
47383;SDS011;33129;52.232;5.192;2022-08-21T12:07:30;6.55;;;2.45;;
47383;SDS011;33129;52.232;5.192;2022-08-21T12:10:04;7.60;;;2.40;;
47383;SDS011;33129;52.232;5.192;2022-08-21T12:12:41;7.10;;;2.25;;
47383;SDS011;33129;52.232;5.192;2022-08-21T12:25:37;7.20;;;2.20;;
47383;SDS011;33129;52.232;5.192;2022-08-21T12:28:15;7.82;;;2.10;;
47383;SDS011;33129;52.232;5.192;2022-08-21T12:30:48;6.40;;;1.67;;
47383;SDS011;33129;52.232;5.192;2022-08-21T12:33:22;6.90;;;1.83;;
47383;SDS011;33129;52.232;5.192;2022-08-21T12:36:13;8.65;;;1.70;;
47383;SDS011;33129;52.232;5.192;2022-08-21T12:41:32;6.80;;;1.90;;
47383;SDS011;33129;52.232;5.192;2022-08-21T12:47:33;5.80;;;1.95;;
47383;SDS011;33129;52.232;5.192;2022-08-21T12:50:11;7.85;;;2.00;;
47383;SDS011;33129;52.232;5.192;2022-08-21T12:52:48;6.93;;;2.38;;
47383;SDS011;33129;52.232;5.192;2022-08-21T12:55:26;7.57;;;1.73;;
47383;SDS011;33129;52.232;5.192;2022-08-21T12:57:55;6.15;;;2.13;;
47383;SDS011;33129;52.232;5.192;2022-08-21T13:00:23;7.07;;;1.80;;
47383;SDS011;33129;52.232;5.192;2022-08-21T13:02:51;4.70;;;1.70;;
47383;SDS011;33129;52.232;5.192;2022-08-21T13:05:23;5.90;;;1.45;;
47383;SDS011;33129;52.232;5.192;2022-08-21T13:08:02;6.00;;;1.50;;
47383;SDS011;33129;52.232;5.192;2022-08-21T13:10:33;8.60;;;2.17;;
47383;SDS011;33129;52.232;5.192;2022-08-21T13:13:04;7.50;;;1.85;;
47383;SDS011;33129;52.232;5.192;2022-08-21T13:15:35;8.15;;;2.20;;
47383;SDS011;33129;52.232;5.192;2022-08-21T13:18:04;6.65;;;1.50;;
47383;SDS011;33129;52.232;5.192;2022-08-21T13:20:35;5.88;;;1.65;;
47383;SDS011;33129;52.232;5.192;2022-08-21T13:23:24;6.78;;;1.85;;
47383;SDS011;33129;52.232;5.192;2022-08-21T13:25:53;5.53;;;1.80;;
47383;SDS011;33129;52.232;5.192;2022-08-21T13:28:19;5.28;;;1.50;;
47383;SDS011;33129;52.232;5.192;2022-08-21T13:30:47;7.25;;;2.00;;
47383;SDS011;33129;52.232;5.192;2022-08-21T13:33:18;6.25;;;2.00;;
47383;SDS011;33129;52.232;5.192;2022-08-21T13:38:31;7.85;;;1.90;;
47383;SDS011;33129;52.232;5.192;2022-08-21T13:43:44;6.15;;;1.95;;
47383;SDS011;33129;52.232;5.192;2022-08-21T13:46:22;7.65;;;2.25;;
47383;SDS011;33129;52.232;5.192;2022-08-21T13:48:52;7.50;;;1.90;;
47383;SDS011;33129;52.232;5.192;2022-08-21T13:51:20;5.85;;;2.05;;
47383;SDS011;33129;52.232;5.192;2022-08-21T13:53:47;8.85;;;2.72;;
47383;SDS011;33129;52.232;5.192;2022-08-21T13:56:30;6.00;;;2.47;;
47383;SDS011;33129;52.232;5.192;2022-08-21T13:59:08;6.40;;;1.90;;
47383;SDS011;33129;52.232;5.192;2022-08-21T14:01:36;8.30;;;2.67;;
47383;SDS011;33129;52.232;5.192;2022-08-21T14:04:22;8.07;;;1.92;;
47383;SDS011;33129;52.232;5.192;2022-08-21T14:06:51;8.38;;;2.20;;
47383;SDS011;33129;52.232;5.192;2022-08-21T14:09:31;6.55;;;1.83;;
47383;SDS011;33129;52.232;5.192;2022-08-21T14:12:01;6.63;;;2.03;;
47383;SDS011;33129;52.232;5.192;2022-08-21T14:14:38;6.28;;;2.17;;
47383;SDS011;33129;52.232;5.192;2022-08-21T14:17:06;9.18;;;2.17;;
47383;SDS011;33129;52.232;5.192;2022-08-21T14:19:42;7.80;;;1.98;;
47383;SDS011;33129;52.232;5.192;2022-08-21T14:25:28;6.30;;;2.10;;
47383;SDS011;33129;52.232;5.192;2022-08-21T14:30:45;8.35;;;2.35;;
47383;SDS011;33129;52.232;5.192;2022-08-21T14:33:12;6.85;;;1.85;;
47383;SDS011;33129;52.232;5.192;2022-08-21T14:35:49;7.55;;;2.30;;
47383;SDS011;33129;52.232;5.192;2022-08-21T14:38:19;5.88;;;2.90;;
47383;SDS011;33129;52.232;5.192;2022-08-21T14:40:50;7.45;;;2.33;;
47383;SDS011;33129;52.232;5.192;2022-08-21T14:43:19;7.90;;;2.08;;
47383;SDS011;33129;52.232;5.192;2022-08-21T14:45:46;8.48;;;2.95;;
47383;SDS011;33129;52.232;5.192;2022-08-21T14:48:12;8.57;;;3.35;;
47383;SDS011;33129;52.232;5.192;2022-08-21T14:50:39;8.90;;;2.83;;
47383;SDS011;33129;52.232;5.192;2022-08-21T14:53:05;8.90;;;2.80;;
47383;SDS011;33129;52.232;5.192;2022-08-21T14:55:31;6.60;;;2.08;;
47383;SDS011;33129;52.232;5.192;2022-08-21T14:58:18;8.55;;;2.47;;
47383;SDS011;33129;52.232;5.192;2022-08-21T15:00:45;6.75;;;2.35;;
47383;SDS011;33129;52.232;5.192;2022-08-21T15:03:10;8.98;;;2.65;;
47383;SDS011;33129;52.232;5.192;2022-08-21T15:05:36;7.07;;;2.17;;
47383;SDS011;33129;52.232;5.192;2022-08-21T15:08:02;9.35;;;2.42;;
47383;SDS011;33129;52.232;5.192;2022-08-21T15:10:29;6.93;;;2.05;;
47383;SDS011;33129;52.232;5.192;2022-08-21T15:12:57;13.30;;;3.28;;
47383;SDS011;33129;52.232;5.192;2022-08-21T15:15:23;8.73;;;2.20;;
47383;SDS011;33129;52.232;5.192;2022-08-21T15:17:49;6.45;;;1.80;;
47383;SDS011;33129;52.232;5.192;2022-08-21T15:20:15;10.45;;;2.63;;
47383;SDS011;33129;52.232;5.192;2022-08-21T15:22:40;9.65;;;2.33;;
47383;SDS011;33129;52.232;5.192;2022-08-21T15:25:06;7.55;;;2.20;;
47383;SDS011;33129;52.232;5.192;2022-08-21T15:27:32;7.68;;;2.40;;
47383;SDS011;33129;52.232;5.192;2022-08-21T15:30:00;9.30;;;2.70;;
47383;SDS011;33129;52.232;5.192;2022-08-21T15:32:28;8.82;;;2.45;;
47383;SDS011;33129;52.232;5.192;2022-08-21T15:34:55;6.15;;;1.95;;
47383;SDS011;33129;52.232;5.192;2022-08-21T15:37:23;6.97;;;1.88;;
47383;SDS011;33129;52.232;5.192;2022-08-21T15:39:49;9.38;;;2.22;;
47383;SDS011;33129;52.232;5.192;2022-08-21T15:42:17;5.82;;;2.03;;
47383;SDS011;33129;52.232;5.192;2022-08-21T15:44:43;5.70;;;2.28;;
47383;SDS011;33129;52.232;5.192;2022-08-21T15:47:11;5.90;;;1.90;;
47383;SDS011;33129;52.232;5.192;2022-08-21T15:49:41;7.20;;;1.67;;
47383;SDS011;33129;52.232;5.192;2022-08-21T15:52:11;7.88;;;2.35;;
47383;SDS011;33129;52.232;5.192;2022-08-21T15:54:42;10.65;;;2.60;;
47383;SDS011;33129;52.232;5.192;2022-08-21T15:57:15;6.13;;;1.80;;
47383;SDS011;33129;52.232;5.192;2022-08-21T15:59:45;9.10;;;2.20;;
47383;SDS011;33129;52.232;5.192;2022-08-21T16:02:26;7.47;;;2.40;;
47383;SDS011;33129;52.232;5.192;2022-08-21T16:04:55;6.53;;;2.17;;
47383;SDS011;33129;52.232;5.192;2022-08-21T16:07:22;6.18;;;1.90;;
47383;SDS011;33129;52.232;5.192;2022-08-21T16:09:48;8.95;;;2.08;;
47383;SDS011;33129;52.232;5.192;2022-08-21T16:12:17;4.68;;;1.80;;
47383;SDS011;33129;52.232;5.192;2022-08-21T16:14:50;6.20;;;2.05;;
47383;SDS011;33129;52.232;5.192;2022-08-21T16:17:17;6.13;;;1.75;;
47383;SDS011;33129;52.232;5.192;2022-08-21T16:19:43;5.97;;;1.92;;
47383;SDS011;33129;52.232;5.192;2022-08-21T16:22:10;9.32;;;2.60;;
47383;SDS011;33129;52.232;5.192;2022-08-21T16:24:35;7.05;;;2.08;;
47383;SDS011;33129;52.232;5.192;2022-08-21T16:27:01;6.10;;;1.90;;
47383;SDS011;33129;52.232;5.192;2022-08-21T16:29:29;7.97;;;2.10;;
47383;SDS011;33129;52.232;5.192;2022-08-21T16:32:00;7.13;;;2.30;;
47383;SDS011;33129;52.232;5.192;2022-08-21T16:34:27;8.20;;;2.05;;
47383;SDS011;33129;52.232;5.192;2022-08-21T16:36:53;7.57;;;2.75;;
47383;SDS011;33129;52.232;5.192;2022-08-21T16:39:19;8.35;;;1.67;;
47383;SDS011;33129;52.232;5.192;2022-08-21T16:41:48;8.23;;;2.42;;
47383;SDS011;33129;52.232;5.192;2022-08-21T16:44:15;6.45;;;1.92;;
47383;SDS011;33129;52.232;5.192;2022-08-21T16:46:40;8.10;;;2.45;;
47383;SDS011;33129;52.232;5.192;2022-08-21T16:49:06;5.75;;;2.15;;
47383;SDS011;33129;52.232;5.192;2022-08-21T16:51:34;8.07;;;2.15;;